Ballyhoo — 2JRG5 — position and weather

sailwx.info

Track history (hours):
 
Tides and Currents Weather Stations Pressure Air Temp Water Temp Dewpoint Dewpoint Depression Visibility Wind Speed Wind Dir Waves Ship Positions

Ballyhoo

Last reported at 2018-Apr-25 15:17 UTC. Time now 2018-Jul-22 04:42 UTC.
Position N 16°32' W 061°47'.
Warning: this ship's position is months out of date.

Length 13 m.

Type: Sailing vessel. MMSI: 235118276.

Date/timePositionNaut miles runAvg speedWind from/ knotsBaromVisibWave heightAir tempDewpointWater temp
2018-Apr-25 15:17N 16°32' W 061°47'1 2.9
2018-Apr-25 15:00N 16°33' W 061°47'3 6.6
2018-Apr-25 14:31N 16°36' W 061°46'4 7.3
2018-Apr-25 14:00N 16°39' W 061°45'4 7.9
2018-Apr-25 13:30N 16°43' W 061°44'4 7.7
2018-Apr-25 13:00N 16°47' W 061°43'4 7.6
2018-Apr-25 12:29N 16°51' W 061°42'4 7.5
2018-Apr-25 12:00N 16°54' W 061°41'4 7.5
2018-Apr-25 11:30N 16°58' W 061°41'4 7.5
2018-Apr-25 10:59N 17°02' W 061°40'2 4.6
2018-Apr-25 10:29N 17°04' W 061°40'0 0.0
2018-Apr-25 09:59N 17°04' W 061°40'0 0.0
2018-Apr-24 17:58N 17°04' W 061°40'0 0.0
2018-Apr-24 17:29N 17°04' W 061°40'1 2.0
2018-Apr-24 17:00N 17°03' W 061°40'3 5.8
2018-Apr-24 16:30N 17°00' W 061°41'2 4.0
2018-Apr-24 16:00N 17°01' W 061°43'3 5.1
2018-Apr-24 15:29N 16°58' W 061°44'2 4.6
2018-Apr-24 15:00N 17°00' W 061°46'0 0.7
2018-Apr-24 14:28N 17°01' W 061°46'0 0.0
2018-Apr-24 13:58N 17°01' W 061°46'0 0.5
2018-Apr-24 13:30N 17°00' W 061°46'1 1.3
2018-Apr-24 12:54N 17°01' W 061°46'0 0.0
2018-Apr-24 12:30N 17°01' W 061°46'  
2018-Apr-19 16:20N 17°01' W 061°46'0 0.0
2018-Apr-19 16:01N 17°01' W 061°46'1 1.4
2018-Apr-19 15:28N 17°00' W 061°46'0 0.1
2018-Apr-19 14:58N 17°00' W 061°46'0 0.5
2018-Apr-19 14:30N 17°01' W 061°46'  
Track history (hours):
 
Tides and Currents Weather Stations Pressure Air Temp Water Temp Dewpoint Dewpoint Depression Visibility Wind Speed Wind Dir Waves Ship Positions

Ballyhoo

Last reported at 2018-Apr-25 15:17 UTC. Time now 2018-Jul-22 04:42 UTC.
Position N 16°32' W 061°47'.
Warning: this ship's position is months out of date.

Length 13 m.

Type: Sailing vessel. MMSI: 235118276.

Date/timePositionNaut miles runAvg speedWind from/ knotsBaromVisibWave heightAir tempDewpointWater temp
2018-Apr-25 15:17N 16°32' W 061°47'1 2.9
2018-Apr-25 15:00N 16°33' W 061°47'3 6.6
2018-Apr-25 14:31N 16°36' W 061°46'4 7.3
2018-Apr-25 14:00N 16°39' W 061°45'4 7.9
2018-Apr-25 13:30N 16°43' W 061°44'4 7.7
2018-Apr-25 13:00N 16°47' W 061°43'4 7.6
2018-Apr-25 12:29N 16°51' W 061°42'4 7.5
2018-Apr-25 12:00N 16°54' W 061°41'4 7.5
2018-Apr-25 11:30N 16°58' W 061°41'4 7.5
2018-Apr-25 10:59N 17°02' W 061°40'2 4.6
2018-Apr-25 10:29N 17°04' W 061°40'0 0.0
2018-Apr-25 09:59N 17°04' W 061°40'0 0.0
2018-Apr-24 17:58N 17°04' W 061°40'0 0.0
2018-Apr-24 17:29N 17°04' W 061°40'1 2.0
2018-Apr-24 17:00N 17°03' W 061°40'3 5.8
2018-Apr-24 16:30N 17°00' W 061°41'2 4.0
2018-Apr-24 16:00N 17°01' W 061°43'3 5.1
2018-Apr-24 15:29N 16°58' W 061°44'2 4.6
2018-Apr-24 15:00N 17°00' W 061°46'0 0.7
2018-Apr-24 14:28N 17°01' W 061°46'0 0.0
2018-Apr-24 13:58N 17°01' W 061°46'0 0.5
2018-Apr-24 13:30N 17°00' W 061°46'1 1.3
2018-Apr-24 12:54N 17°01' W 061°46'0 0.0
2018-Apr-24 12:30N 17°01' W 061°46'  
2018-Apr-19 16:20N 17°01' W 061°46'0 0.0
2018-Apr-19 16:01N 17°01' W 061°46'1 1.4
2018-Apr-19 15:28N 17°00' W 061°46'0 0.1
2018-Apr-19 14:58N 17°00' W 061°46'0 0.5
2018-Apr-19 14:30N 17°01' W 061°46'  

Dump ship's entire track history